Time;durP1;ratioP1;P1;durP2;ratioP2;P2;SDS_P1;SDS_P2;PMS_P1;PMS_P2;Temp;Humidity;BMP_temperature;BMP_pressure;BME280_temperature;BME280_humidity;BME280_pressure;Samples;Min_cycle;Max_cycle;Signal;HPM_P1;HPM_P2
2023/10/02 00:01:58;;;;;;;19.15;9.35;;;;;;;;;;5016452;28;20077;-66
2023/10/02 00:04:24;;;;;;;24.17;10.75;;;17.10;99.90;;;;;;5036293;28;20441;-66
2023/10/02 00:07:05;;;;;;;25.05;10.75;;;17.00;99.90;;;;;;5039097;28;20059;-66
2023/10/02 00:09:41;;;;;;;23.15;10.48;;;17.00;99.90;;;;;;5039294;28;20402;-66
2023/10/02 00:12:13;;;;;;;24.80;10.68;;;17.00;99.90;;;;;;5038006;28;20094;-66
2023/10/02 00:14:41;;;;;;;23.25;10.73;;;17.00;99.90;;;;;;5017924;28;20436;-66
2023/10/02 00:17:13;;;;;;;23.70;11.00;;;17.00;99.90;;;;;;5036368;28;20497;-66
2023/10/02 00:19:43;;;;;;;26.75;10.82;;;17.10;99.90;;;;;;5034310;28;20072;-66
2023/10/02 00:22:36;;;;;;;22.40;10.75;;;17.20;99.90;;;;;;5037959;28;20079;-66
2023/10/02 00:25:16;;;;;;;20.98;10.68;;;17.20;99.90;;;;;;5029310;28;20037;-66
2023/10/02 00:27:45;;;;;;;27.33;10.88;;;;;;;;;;5014169;28;20036;-66
2023/10/02 00:30:13;;;;;;;23.17;10.80;;;;;;;;;;5039275;28;20063;-66
2023/10/02 00:32:40;;;;;;;23.80;11.27;;;17.10;99.90;;;;;;5036825;28;20081;-66
2023/10/02 00:35:10;;;;;;;23.95;11.38;;;;;;;;;;5038189;28;20115;-66
2023/10/02 00:37:52;;;;;;;23.58;10.88;;;;;;;;;;5010846;28;20123;-66
2023/10/02 00:40:22;;;;;;;21.75;11.23;;;17.00;99.90;;;;;;5034906;28;20044;-65
2023/10/02 00:42:55;;;;;;;23.15;11.23;;;17.10;99.90;;;;;;5038096;28;20046;-66
2023/10/02 00:45:29;;;;;;;27.48;12.02;;;17.10;99.90;;;;;;5038908;28;20037;-66
2023/10/02 00:48:24;;;;;;;20.33;11.07;;;17.00;99.90;;;;;;5018373;28;20057;-66
2023/10/02 00:50:49;;;;;;;25.08;10.82;;;;;;;;;;5021134;28;20897;-66
2023/10/02 00:53:15;;;;;;;26.30;11.48;;;;;;;;;;5019634;28;20076;-66
2023/10/02 00:55:44;;;;;;;24.38;11.35;;;17.00;99.90;;;;;;5037300;28;20048;-66
2023/10/02 00:58:15;;;;;;;24.13;11.38;;;17.00;99.90;;;;;;5026139;28;20056;-66
2023/10/02 01:00:50;;;;;;;25.88;11.77;;;;;;;;;;5027603;28;20049;-66
2023/10/02 01:03:17;;;;;;;26.77;11.63;;;;;;;;;;5014444;28;20055;-66
2023/10/02 01:05:47;;;;;;;24.55;10.30;;;17.00;99.90;;;;;;5041458;28;20041;-66
2023/10/02 01:08:25;;;;;;;24.52;11.45;;;17.10;99.90;;;;;;5020542;28;20041;-66
2023/10/02 01:10:56;;;;;;;23.73;11.40;;;;;;;;;;5022700;28;20048;-66
2023/10/02 01:13:24;;;;;;;19.70;10.25;;;17.10;99.90;;;;;;5022707;28;20051;-66
2023/10/02 01:15:51;;;;;;;23.75;10.93;;;;;;;;;;5043945;28;20045;-66
2023/10/02 01:18:27;;;;;;;20.83;10.80;;;17.10;99.90;;;;;;5041963;28;20040;-66
2023/10/02 01:20:56;;;;;;;21.77;10.82;;;17.00;99.90;;;;;;5023348;28;20164;-66
2023/10/02 01:23:27;;;;;;;22.38;10.68;;;17.00;99.90;;;;;;5024908;28;20107;-66
2023/10/02 01:25:57;;;;;;;24.38;11.15;;;17.10;99.90;;;;;;5041852;28;20144;-66
2023/10/02 01:28:51;;;;;;;25.10;11.80;;;17.00;99.90;;;;;;5038106;28;20594;-66
2023/10/02 01:34:04;;;;;;;27.10;12.07;;;17.00;99.90;;;;;;5021941;28;20050;-66
2023/10/02 01:36:32;;;;;;;24.77;11.48;;;17.00;99.90;;;;;;5019637;28;20051;-66
2023/10/02 01:39:10;;;;;;;27.10;11.77;;;16.90;99.90;;;;;;5040909;28;20041;-66
2023/10/02 01:41:39;;;;;;;22.60;11.50;;;16.90;99.90;;;;;;5043351;28;20045;-66
2023/10/02 01:44:12;;;;;;;25.15;11.95;;;17.00;99.90;;;;;;5038056;28;20413;-66
2023/10/02 01:46:49;;;;;;;27.27;11.93;;;16.90;99.90;;;;;;5038232;28;20045;-66
2023/10/02 01:49:24;;;;;;;23.90;12.00;;;16.90;99.90;;;;;;5034244;28;20456;-66
2023/10/02 01:51:50;;;;;;;;;;;17.00;99.90;;;;;;5015316;28;20076;-66
2023/10/02 01:54:15;;;;;;;23.92;11.10;;;16.90;99.90;;;;;;5019173;28;19920;-66
2023/10/02 01:56:45;;;;;;;27.65;11.77;;;16.80;99.90;;;;;;5024348;28;20063;-66
2023/10/02 01:59:14;;;;;;;29.20;12.25;;;16.90;99.90;;;;;;5037309;28;20040;-66
2023/10/02 02:02:12;;;;;;;26.55;12.65;;;16.90;99.90;;;;;;5031149;28;20049;-66
2023/10/02 02:04:33;;;;;;;29.20;13.02;;;17.10;99.90;;;;;;5014261;28;20144;-66
2023/10/02 02:07:00;;;;;;;26.38;12.23;;;16.90;99.90;;;;;;5024285;28;20048;-66
2023/10/02 02:09:31;;;;;;;27.20;13.30;;;17.00;99.90;;;;;;5021157;28;20127;-66
2023/10/02 02:12:09;;;;;;;24.85;12.27;;;16.90;99.90;;;;;;5020566;28;20100;-66
2023/10/02 02:14:52;;;;;;;25.30;13.15;;;16.90;99.90;;;;;;5035714;28;20041;-66
2023/10/02 02:17:26;;;;;;;23.55;11.50;;;16.90;99.90;;;;;;5026570;28;20411;-66
2023/10/02 02:19:54;;;;;;;27.65;12.82;;;16.80;99.90;;;;;;5038783;28;20044;-66
2023/10/02 02:22:26;;;;;;;25.55;13.20;;;17.00;99.90;;;;;;5024904;28;20049;-66
2023/10/02 02:24:53;;;;;;;26.27;12.90;;;16.90;99.90;;;;;;5029428;28;20052;-66
2023/10/02 02:27:19;;;;;;;27.95;12.45;;;;;;;;;;5024691;28;20049;-66
2023/10/02 02:29:50;;;;;;;33.28;13.60;;;16.90;99.90;;;;;;5025272;28;20053;-66
2023/10/02 02:32:19;;;;;;;26.70;12.93;;;16.70;99.90;;;;;;5022402;28;20054;-66
2023/10/02 02:34:49;;;;;;;29.63;13.63;;;16.90;99.90;;;;;;5038722;28;20049;-67
2023/10/02 02:37:16;;;;;;;28.27;12.90;;;;;;;;;;5041380;28;20500;-66
2023/10/02 02:39:43;;;;;;;29.55;13.63;;;;;;;;;;5023038;28;20048;-66
2023/10/02 02:42:09;;;;;;;30.90;14.68;;;17.00;99.90;;;;;;5019670;28;20052;-66
2023/10/02 02:44:47;;;;;;;30.88;14.32;;;17.10;99.90;;;;;;5037314;28;20456;-66
2023/10/02 02:47:14;;;;;;;32.55;13.48;;;16.90;99.90;;;;;;5017962;28;20821;-66
2023/10/02 02:49:48;;;;;;;27.95;12.77;;;17.00;99.90;;;;;;5038694;28;20041;-66
2023/10/02 02:52:28;;;;;;;28.52;14.73;;;17.10;99.90;;;;;;5041328;28;20088;-66
2023/10/02 02:54:59;;;;;;;26.30;14.70;;;17.20;99.90;;;;;;5038120;28;20033;-66
2023/10/02 02:57:30;;;;;;;28.50;14.23;;;16.90;99.90;;;;;;5041971;28;20041;-66
2023/10/02 03:02:46;;;;;;;31.65;13.50;;;17.10;99.90;;;;;;5021918;28;20041;-66
2023/10/02 03:05:13;;;;;;;26.48;13.98;;;17.10;99.90;;;;;;5043910;28;20389;-66
2023/10/02 03:07:40;;;;;;;27.85;13.63;;;17.00;99.90;;;;;;5024256;28;20056;-66
2023/10/02 03:10:13;;;;;;;30.20;13.23;;;17.00;99.90;;;;;;5039820;28;20725;-65
2023/10/02 03:12:48;;;;;;;28.33;14.25;;;17.00;99.90;;;;;;5023183;28;20053;-66
2023/10/02 03:15:45;;;;;;;30.08;14.05;;;17.20;99.90;;;;;;5024521;28;20449;-66
2023/10/02 03:18:22;;;;;;;30.60;15.60;;;17.00;99.90;;;;;;5038368;28;20116;-66
2023/10/02 03:20:49;;;;;;;29.92;14.85;;;17.00;99.90;;;;;;5041756;28;20103;-66
2023/10/02 03:23:18;;;;;;;26.98;15.38;;;;;;;;;;5024272;28;20051;-66
2023/10/02 03:25:47;;;;;;;24.95;13.40;;;;;;;;;;5026839;28;20579;-66
2023/10/02 03:28:28;;;;;;;26.60;13.85;;;17.00;99.90;;;;;;5041919;28;20068;-66
2023/10/02 03:30:55;;;;;;;27.95;13.95;;;17.10;99.90;;;;;;5024374;28;20057;-66
2023/10/02 03:33:21;;;;;;;28.75;13.55;;;;;;;;;;5023578;28;20519;-66
2023/10/02 03:38:33;;;;;;;28.90;14.30;;;17.00;99.90;;;;;;5039201;28;20085;-66
2023/10/02 03:41:05;;;;;;;26.30;14.45;;;17.00;99.90;;;;;;5017859;28;20063;-66
2023/10/02 03:43:34;;;;;;;26.70;14.50;;;;;;;;;;5041317;28;20044;-66
2023/10/02 03:46:06;;;;;;;29.25;13.65;;;16.90;99.90;;;;;;5034982;28;20048;-66
2023/10/02 03:48:33;;;;;;;27.15;13.93;;;16.90;99.90;;;;;;5016287;28;20508;-66
2023/10/02 03:51:03;;;;;;;30.05;14.88;;;16.80;99.90;;;;;;5040582;28;20041;-66
2023/10/02 03:53:29;;;;;;;28.00;14.77;;;;;;;;;;5043922;28;20162;-66
2023/10/02 03:58:52;;;;;;;28.98;14.18;;;16.80;99.90;;;;;;5021298;28;20084;-66
2023/10/02 04:01:31;;;;;;;29.63;14.60;;;16.80;99.90;;;;;;5017547;28;20455;-66
2023/10/02 04:06:35;;;;;;;29.60;14.48;;;;;;;;;;5022130;28;20098;-66
2023/10/02 04:09:12;;;;;;;28.00;13.77;;;16.90;99.90;;;;;;5037639;28;20037;-66
2023/10/02 04:11:39;;;;;;;32.42;14.65;;;16.70;99.90;;;;;;5023319;28;20041;-66
2023/10/02 04:14:17;;;;;;;26.33;13.73;;;16.70;99.90;;;;;;5034396;28;20057;-66
2023/10/02 04:16:48;;;;;;;35.25;15.43;;;16.90;99.90;;;;;;5012704;28;20045;-66
2023/10/02 04:19:24;;;;;;;27.85;13.95;;;16.60;99.90;;;;;;5017081;28;20037;-66
2023/10/02 04:21:56;;;;;;;35.00;15.05;;;16.60;99.90;;;;;;5034541;28;20052;-66
2023/10/02 04:24:26;;;;;;;33.13;15.82;;;16.60;99.90;;;;;;5032446;28;20076;-66
2023/10/02 04:27:08;;;;;;;32.92;14.93;;;16.50;99.90;;;;;;5042027;28;20507;-66
2023/10/02 04:29:37;;;;;;;29.95;14.88;;;16.60;99.90;;;;;;5022077;28;20041;-66
2023/10/02 04:32:15;;;;;;;31.40;14.65;;;16.50;99.90;;;;;;5018813;28;20512;-66
2023/10/02 04:34:50;;;;;;;29.77;14.43;;;16.40;99.90;;;;;;5042014;28;20523;-66
2023/10/02 04:37:20;;;;;;;29.13;14.65;;;16.60;99.90;;;;;;5022866;28;20060;-66
2023/10/02 04:42:57;;;;;;;27.52;13.90;;;16.50;99.90;;;;;;5035912;28;20165;-66
2023/10/02 04:45:25;;;;;;;31.60;15.77;;;16.60;99.90;;;;;;5038417;28;20048;-66
2023/10/02 04:47:54;;;;;;;30.20;14.43;;;16.70;99.90;;;;;;5021711;28;20127;-66
2023/10/02 04:53:04;;;;;;;29.90;14.35;;;16.60;99.90;;;;;;5016782;28;20064;-66
2023/10/02 04:55:32;;;;;;;27.98;13.82;;;16.60;99.90;;;;;;5033320;28;20041;-66
2023/10/02 04:58:19;;;;;;;29.50;14.20;;;16.70;99.90;;;;;;5041638;28;20044;-66
2023/10/02 05:03:30;;;;;;;;;;;16.60;99.90;;;;;;5010870;28;20088;-66
2023/10/02 05:05:58;;;;;;;26.73;13.95;;;;;;;;;;5041271;28;19968;-66
2023/10/02 05:08:40;;;;;;;34.63;14.63;;;16.40;99.90;;;;;;5045428;28;20041;-66
2023/10/02 05:11:45;;;;;;;29.00;14.10;;;16.70;99.90;;;;;;5036713;28;20040;-66
2023/10/02 05:16:33;;;;;;;27.95;13.40;;;16.40;99.90;;;;;;5023679;28;20076;-66
2023/10/02 05:18:59;;;;;;;30.40;14.23;;;;;;;;;;5039488;28;20080;-66
2023/10/02 05:24:27;;;;;;;31.55;13.73;;;;;;;;;;4938814;28;20055;-66
2023/10/02 05:26:53;;;;;;;27.50;13.80;;;;;;;;;;5025686;28;20049;-66
2023/10/02 05:29:41;;;;;;;24.92;13.35;;;;;;;;;;5021869;28;20049;-66
2023/10/02 05:32:23;;;;;;;27.27;13.75;;;;;;;;;;5036461;28;20107;-66
2023/10/02 05:35:04;;;;;;;30.95;15.82;;;16.30;99.90;;;;;;5042284;28;20055;-66
2023/10/02 05:37:39;;;;;;;31.23;14.65;;;16.50;99.90;;;;;;5025659;28;20041;-66
2023/10/02 05:42:54;;;;;;;26.52;13.27;;;16.30;99.90;;;;;;5023178;28;20049;-66
2023/10/02 05:45:47;;;;;;;27.67;13.20;;;16.10;99.90;;;;;;5017945;28;20103;-66
2023/10/02 05:48:27;;;;;;;27.75;13.90;;;16.40;99.90;;;;;;5036241;28;20087;-66
2023/10/02 05:50:53;;;;;;;33.35;13.77;;;16.30;99.90;;;;;;5031087;28;20045;-66
2023/10/02 05:53:25;;;;;;;28.67;14.77;;;16.40;99.90;;;;;;5025604;28;20116;-66
2023/10/02 05:55:56;;;;;;;26.08;14.15;;;;;;;;;;5013827;28;20044;-66
2023/10/02 05:58:31;;;;;;;26.65;12.98;;;;;;;;;;5036782;28;20045;-66
2023/10/02 06:01:03;;;;;;;30.80;14.13;;;16.40;99.90;;;;;;5019694;28;20048;-66
2023/10/02 06:03:34;;;;;;;28.02;13.38;;;16.40;99.90;;;;;;5041925;28;20045;-66
2023/10/02 06:08:49;;;;;;;27.80;14.13;;;16.30;99.90;;;;;;5037793;28;20053;-66
2023/10/02 06:11:25;;;;;;;29.77;13.63;;;16.60;99.90;;;;;;5023390;28;20045;-66
2023/10/02 06:13:55;;;;;;;26.52;13.68;;;16.40;99.90;;;;;;5024797;28;20507;-66
2023/10/02 06:16:28;;;;;;;28.52;13.05;;;16.40;99.90;;;;;;5032502;28;20034;-66
2023/10/02 06:19:04;;;;;;;27.38;13.23;;;;;;;;;;5017600;28;20069;-66
2023/10/02 06:21:31;;;;;;;29.42;13.25;;;16.40;99.90;;;;;;5012335;28;20091;-65
2023/10/02 06:23:57;;;;;;;30.38;13.88;;;;;;;;;;5042532;28;20087;-66
2023/10/02 06:26:29;;;;;;;29.63;13.45;;;16.40;99.90;;;;;;5036587;28;20082;-66
2023/10/02 06:29:13;;;;;;;29.67;13.77;;;;;;;;;;5014936;28;20448;-66
2023/10/02 06:31:42;;;;;;;26.35;12.77;;;;;;;;;;4997924;28;20050;-66
2023/10/02 06:34:11;;;;;;;25.65;14.80;;;16.30;99.90;;;;;;5013735;28;20046;-66
2023/10/02 06:36:48;;;;;;;27.63;13.05;;;16.50;99.90;;;;;;4988830;28;20449;-65
2023/10/02 06:39:17;;;;;;;24.13;13.85;;;16.50;99.90;;;;;;4970185;28;20035;-65
2023/10/02 06:41:44;;;;;;;26.77;13.20;;;16.50;99.90;;;;;;4992011;28;20045;-64
2023/10/02 06:44:16;;;;;;;24.85;12.63;;;16.50;99.90;;;;;;4983273;28;20073;-65
2023/10/02 06:46:54;;;;;;;30.35;14.70;;;16.40;99.90;;;;;;4998186;28;20041;-65
2023/10/02 06:49:23;;;;;;;29.48;14.55;;;;;;;;;;4977751;28;20064;-64
2023/10/02 06:52:11;;;;;;;25.15;12.35;;;16.70;99.90;;;;;;4988242;28;20850;-64
2023/10/02 06:54:56;;;;;;;29.65;14.95;;;16.50;99.90;;;;;;5004400;28;20069;-64
2023/10/02 06:57:44;;;;;;;;;;;;;;;;;;;;;
2023/10/02 07:00:19;;;;;;;31.08;13.98;;;16.80;99.90;;;;;;4981476;28;20053;-64
2023/10/02 07:02:56;;;;;;;25.85;14.10;;;;;;;;;;5010517;28;20045;-65
2023/10/02 07:05:40;;;;;;;30.75;14.25;;;16.70;99.90;;;;;;4995083;28;20286;-64
2023/10/02 07:11:34;;;;;;;28.75;13.07;;;;;;;;;;4981741;28;20533;-65
2023/10/02 07:14:03;;;;;;;29.73;13.63;;;;;;;;;;4994348;28;20046;-64
2023/10/02 07:16:29;;;;;;;32.05;13.48;;;;;;;;;;4985064;28;20054;-65
2023/10/02 07:18:58;;;;;;;29.02;13.73;;;;;;;;;;4994727;28;20052;-64
2023/10/02 07:21:26;;;;;;;28.98;15.55;;;;;;;;;;4989348;28;20050;-64
2023/10/02 07:23:52;;;;;;;29.90;14.68;;;16.90;99.90;;;;;;4993964;28;20052;-64
2023/10/02 07:26:19;;;;;;;34.53;14.88;;;17.10;99.90;;;;;;5005207;28;20042;-65
2023/10/02 07:28:51;;;;;;;28.98;14.18;;;17.10;99.90;;;;;;5019905;28;20157;-64
2023/10/02 07:31:21;;;;;;;30.15;14.63;;;17.20;99.90;;;;;;5015008;28;20056;-65
2023/10/02 07:33:47;;;;;;;30.30;14.75;;;17.30;99.90;;;;;;5041469;28;20555;-65
2023/10/02 07:36:14;;;;;;;28.98;14.13;;;17.40;99.90;;;;;;5015729;28;20148;-65
2023/10/02 07:38:42;;;;;;;30.13;14.70;;;17.60;99.90;;;;;;5012512;28;20055;-66
2023/10/02 07:41:23;;;;;;;30.58;15.50;;;17.60;99.90;;;;;;4993675;28;20033;-66
2023/10/02 07:44:07;;;;;;;30.08;14.93;;;17.80;99.90;;;;;;5015504;28;20041;-65
2023/10/02 07:46:33;;;;;;;26.10;14.63;;;18.30;99.90;;;;;;5016310;28;20122;-66
2023/10/02 07:49:00;;;;;;;30.83;14.82;;;;;;;;;;5007683;28;20033;-66
2023/10/02 07:51:36;;;;;;;25.98;13.43;;;18.30;99.90;;;;;;5017116;28;20116;-65
2023/10/02 07:54:02;;;;;;;31.88;14.60;;;18.60;99.90;;;;;;5020094;28;20068;-65
2023/10/02 07:56:32;;;;;;;27.58;13.30;;;18.50;99.90;;;;;;5017032;28;20038;-66
2023/10/02 07:59:01;;;;;;;26.02;14.40;;;18.60;99.90;;;;;;5019746;28;20045;-65
2023/10/02 08:01:33;;;;;;;25.80;14.55;;;18.70;99.90;;;;;;5019723;28;20077;-65
2023/10/02 08:04:01;;;;;;;29.98;15.10;;;;;;;;;;5019297;28;20094;-65
2023/10/02 08:06:33;;;;;;;25.58;13.70;;;18.70;99.90;;;;;;5031881;28;20506;-65
2023/10/02 08:11:52;;;;;;;24.45;13.73;;;18.90;99.90;;;;;;5022397;28;20430;-65
2023/10/02 08:14:35;;;;;;;29.98;14.35;;;19.00;99.90;;;;;;5044053;28;20041;-65
2023/10/02 08:17:27;;;;;;;31.88;14.73;;;19.10;99.90;;;;;;5004657;28;20034;-64
2023/10/02 08:19:54;;;;;;;31.38;14.27;;;19.30;99.90;;;;;;5006916;28;20037;-65
2023/10/02 08:22:24;;;;;;;32.92;14.40;;;19.50;99.90;;;;;;5044622;28;20053;-66
2023/10/02 08:24:50;;;;;;;28.33;14.23;;;19.70;99.90;;;;;;5017531;28;20138;-65
2023/10/02 08:27:16;;;;;;;25.50;13.60;;;19.80;99.90;;;;;;5013600;28;20091;-65
2023/10/02 08:29:44;;;;;;;32.22;14.50;;;;;;;;;;5024565;28;20137;-65
2023/10/02 08:32:10;;;;;;;32.13;15.32;;;19.70;99.90;;;;;;5019242;28;20471;-65
2023/10/02 08:34:36;;;;;;;28.25;15.38;;;19.90;99.90;;;;;;5027739;28;20048;-66
2023/10/02 08:37:05;;;;;;;32.58;15.48;;;;;;;;;;4997444;28;20041;-65
2023/10/02 08:39:37;;;;;;;25.73;14.00;;;19.80;99.90;;;;;;5016447;28;20045;-66
2023/10/02 08:42:09;;;;;;;31.63;15.43;;;20.00;99.90;;;;;;5018033;28;20077;-66
2023/10/02 08:44:38;;;;;;;33.90;15.40;;;20.30;99.90;;;;;;5029027;28;20060;-66
2023/10/02 08:47:12;;;;;;;31.17;16.10;;;20.30;99.90;;;;;;5006513;28;20567;-64
2023/10/02 08:49:41;;;;;;;29.67;16.48;;;20.40;99.90;;;;;;4999049;28;20135;-64
2023/10/02 08:52:10;;;;;;;36.83;17.80;;;20.30;99.90;;;;;;5028195;28;20481;-65
2023/10/02 08:54:39;;;;;;;38.72;17.10;;;20.40;99.90;;;;;;5026363;28;20152;-64
2023/10/02 08:57:06;;;;;;;33.08;17.02;;;20.70;99.90;;;;;;5020828;28;20096;-65
2023/10/02 08:59:41;;;;;;;38.63;17.92;;;20.50;99.90;;;;;;5032679;28;20496;-65
2023/10/02 09:02:15;;;;;;;33.80;17.08;;;20.60;99.90;;;;;;4994094;28;20041;-65
2023/10/02 09:04:53;;;;;;;35.72;17.27;;;21.00;99.90;;;;;;5033361;28;20048;-64
2023/10/02 09:07:44;;;;;;;35.17;16.67;;;21.30;99.90;;;;;;5011186;28;20045;-65
2023/10/02 09:10:26;;;;;;;42.45;16.70;;;21.50;99.90;;;;;;5016078;28;20054;-65
2023/10/02 09:13:24;;;;;;;36.55;17.58;;;22.20;99.90;;;;;;5033120;28;20405;-65
2023/10/02 09:15:53;;;;;;;39.95;17.45;;;22.10;99.90;;;;;;4993999;28;20041;-65
2023/10/02 09:19:07;;;;;;;35.70;17.13;;;21.80;99.90;;;;;;5018000;28;20037;-66
2023/10/02 09:21:21;;;;;;;36.85;19.38;;;21.50;99.90;;;;;;5024128;28;20151;-65
2023/10/02 09:23:51;;;;;;;41.55;19.50;;;20.90;99.90;;;;;;5020175;28;20125;-65
2023/10/02 09:26:17;;;;;;;39.35;19.63;;;;;;;;;;5045943;28;20041;-65
2023/10/02 09:28:58;;;;;;;41.28;19.00;;;20.60;99.90;;;;;;5022642;28;20374;-65
2023/10/02 09:31:28;;;;;;;42.00;19.02;;;20.50;99.90;;;;;;5030429;28;20084;-65
2023/10/02 09:33:55;;;;;;;46.38;21.45;;;20.30;99.90;;;;;;5024847;28;20143;-66
2023/10/02 09:36:35;;;;;;;41.67;21.35;;;20.20;99.90;;;;;;5027973;28;20052;-66
2023/10/02 09:39:31;;;;;;;44.42;21.63;;;19.90;99.90;;;;;;5016150;28;20049;-66
2023/10/02 09:42:06;;;;;;;40.63;21.90;;;19.80;99.90;;;;;;5017186;28;20040;-65
2023/10/02 09:44:44;;;;;;;46.88;22.83;;;19.60;99.90;;;;;;5026329;28;20045;-66
2023/10/02 09:47:09;;;;;;;51.50;24.52;;;19.50;99.90;;;;;;5013817;28;20068;-66
2023/10/02 09:49:47;;;;;;;51.00;25.10;;;19.50;99.90;;;;;;5030911;28;20045;-66
2023/10/02 09:52:23;;;;;;;46.95;23.25;;;19.70;99.90;;;;;;5016000;28;20056;-65
2023/10/02 09:55:14;;;;;;;48.42;21.85;;;19.70;99.90;;;;;;5024659;28;20033;-65
2023/10/02 09:57:50;;;;;;;43.22;21.88;;;20.00;99.90;;;;;;5005586;28;20047;-65
2023/10/02 10:00:37;;;;;;;43.03;23.38;;;19.90;99.90;;;;;;5010195;28;20045;-65
2023/10/02 10:03:22;;;;;;;45.58;22.58;;;20.10;99.90;;;;;;4999764;28;20133;-65
2023/10/02 10:06:06;;;;;;;45.65;23.25;;;19.90;99.90;;;;;;5031407;28;20102;-65
2023/10/02 10:11:42;;;;;;;51.17;25.00;;;19.90;99.90;;;;;;5030076;28;20049;-65
2023/10/02 10:14:36;;;;;;;49.03;22.52;;;19.80;99.90;;;;;;5008511;28;20492;-65
2023/10/02 10:17:15;;;;;;;50.00;23.42;;;19.90;99.90;;;;;;5017940;28;20041;-65
2023/10/02 10:22:40;;;;;;;42.03;22.42;;;20.00;99.90;;;;;;5000500;28;20045;-65
2023/10/02 10:28:00;;;;;;;46.65;23.23;;;;;;;;;;5013486;28;20053;-65
2023/10/02 10:30:24;;;;;;;48.17;24.20;;;;;;;;;;5023448;28;20057;-65
2023/10/02 10:33:33;;;;;;;44.75;22.92;;;19.80;99.90;;;;;;5007927;28;20425;-65
2023/10/02 10:36:02;;;;;;;54.47;25.08;;;19.80;99.90;;;;;;5009503;28;20566;-65
2023/10/02 10:38:36;;;;;;;49.47;24.45;;;;;;;;;;5014112;28;20045;-65
2023/10/02 10:41:09;;;;;;;45.95;24.02;;;19.70;99.90;;;;;;5015834;28;20148;-65
2023/10/02 10:46:17;;;;;;;45.75;22.23;;;;;;;;;;5006332;28;20072;-66
2023/10/02 10:48:58;;;;;;;42.67;23.17;;;19.60;99.90;;;;;;4990627;28;20497;-66
2023/10/02 10:51:27;;;;;;;44.55;23.00;;;;;;;;;;5019812;28;20453;-65
2023/10/02 10:54:12;;;;;;;44.00;23.70;;;19.50;99.90;;;;;;5014718;28;20619;-65
2023/10/02 10:56:45;;;;;;;51.67;23.27;;;19.50;99.90;;;;;;5018333;28;20404;-66
2023/10/02 10:59:12;;;;;;;46.38;23.95;;;20.00;99.90;;;;;;5034705;28;20444;-65
2023/10/02 11:04:43;;;;;;;49.30;25.02;;;19.90;99.90;;;;;;5013626;28;20775;-65
2023/10/02 11:07:25;;;;;;;51.90;23.92;;;19.60;99.90;;;;;;5037762;28;20040;-66
2023/10/02 11:10:18;;;;;;;51.65;24.20;;;19.60;99.90;;;;;;5032094;28;20124;-67
2023/10/02 11:12:56;;;;;;;46.75;21.55;;;19.70;99.90;;;;;;5022930;28;20074;-66
2023/10/02 11:18:19;;;;;;;51.88;24.92;;;19.60;99.90;;;;;;5028636;28;20041;-66
2023/10/02 11:20:57;;;;;;;;;;;19.70;99.90;;;;;;5017957;28;20131;-66
2023/10/02 11:23:43;;;;;;;47.72;23.63;;;19.70;99.90;;;;;;5006299;28;20628;-65
2023/10/02 11:26:21;;;;;;;50.22;24.92;;;19.70;99.90;;;;;;5034649;28;20040;-66
2023/10/02 11:28:50;;;;;;;52.42;24.65;;;19.80;99.90;;;;;;5027387;28;20045;-66
2023/10/02 11:31:45;;;;;;;43.67;24.35;;;19.80;99.90;;;;;;5026759;28;20460;-66
2023/10/02 11:34:11;;;;;;;50.13;25.02;;;19.70;99.90;;;;;;5016380;28;20052;-66
2023/10/02 11:36:46;;;;;;;49.83;25.20;;;20.00;99.90;;;;;;5020767;28;20073;-67
2023/10/02 11:39:19;;;;;;;48.13;23.45;;;20.00;99.90;;;;;;4998576;28;20210;-66
2023/10/02 11:41:46;;;;;;;42.75;23.08;;;20.10;99.90;;;;;;5013663;28;20049;-66
2023/10/02 11:44:12;;;;;;;48.45;23.50;;;20.10;99.90;;;;;;5029298;28;20504;-67
2023/10/02 11:46:43;;;;;;;43.72;23.05;;;20.20;99.90;;;;;;5013603;28;20049;-66
2023/10/02 11:49:10;;;;;;;45.38;24.52;;;20.20;99.90;;;;;;5016272;28;20047;-66
2023/10/02 11:51:36;;;;;;;49.00;24.30;;;20.30;99.90;;;;;;5033986;28;20050;-66
2023/10/02 11:54:05;;;;;;;46.92;25.70;;;20.40;99.90;;;;;;5017393;28;20053;-67
2023/10/02 11:56:31;;;;;;;44.30;23.98;;;20.40;99.90;;;;;;5030558;28;20080;-66
2023/10/02 11:58:58;;;;;;;44.30;23.85;;;20.40;99.90;;;;;;4997669;28;20041;-66
2023/10/02 12:01:26;;;;;;;48.38;25.40;;;20.40;99.90;;;;;;5019081;28;20048;-67
2023/10/02 12:03:56;;;;;;;44.85;23.77;;;20.50;99.90;;;;;;5011695;28;20068;-67
2023/10/02 12:06:26;;;;;;;46.65;24.60;;;20.50;99.90;;;;;;5009255;28;20077;-67
2023/10/02 12:08:56;;;;;;;47.22;22.80;;;20.60;99.90;;;;;;5009623;28;20564;-66
2023/10/02 12:11:24;;;;;;;48.47;23.23;;;20.60;99.90;;;;;;5035196;28;20042;-67
2023/10/02 12:13:51;;;;;;;43.70;21.20;;;20.60;99.90;;;;;;5015438;28;20425;-66
2023/10/02 12:16:17;;;;;;;45.75;22.88;;;20.60;99.90;;;;;;5020698;28;20071;-67
2023/10/02 12:18:43;;;;;;;39.28;20.95;;;20.60;99.90;;;;;;5018951;28;20072;-67
2023/10/02 12:21:11;;;;;;;42.20;21.23;;;20.60;99.90;;;;;;5035181;28;20475;-67
2023/10/02 12:23:39;;;;;;;45.47;20.05;;;20.60;99.90;;;;;;5014581;28;20489;-66
2023/10/02 12:26:11;;;;;;;42.35;20.83;;;20.60;99.90;;;;;;5029151;28;20116;-68
2023/10/02 12:28:37;;;;;;;40.92;19.90;;;20.50;99.90;;;;;;5016184;28;20146;-67
2023/10/02 12:31:12;;;;;;;41.53;20.67;;;20.70;99.90;;;;;;5036019;28;20049;-67
2023/10/02 12:33:41;;;;;;;35.40;19.42;;;20.60;99.90;;;;;;5015019;28;20179;-67
2023/10/02 12:36:18;;;;;;;42.65;20.67;;;20.50;99.90;;;;;;5013255;28;20120;-67
2023/10/02 12:38:45;;;;;;;45.83;20.48;;;20.40;99.90;;;;;;5007138;28;20869;-66
2023/10/02 12:41:15;;;;;;;42.22;20.88;;;20.50;99.90;;;;;;5015249;28;20052;-67
2023/10/02 12:43:42;;;;;;;40.80;21.20;;;20.50;99.90;;;;;;5030706;28;20505;-67
2023/10/02 12:46:09;;;;;;;36.42;19.45;;;20.50;99.90;;;;;;5041245;28;20032;-66
2023/10/02 12:48:35;;;;;;;42.00;19.60;;;20.40;99.90;;;;;;5033846;28;20046;-67
2023/10/02 12:51:07;;;;;;;38.45;19.42;;;20.50;99.90;;;;;;5017077;28;20051;-66
2023/10/02 12:53:38;;;;;;;39.88;19.40;;;20.60;99.90;;;;;;5031969;28;20034;-67
2023/10/02 12:56:07;;;;;;;39.50;20.00;;;20.60;99.90;;;;;;5037285;28;20557;-66
2023/10/02 12:58:33;;;;;;;42.08;18.00;;;20.50;99.90;;;;;;5034260;28;20057;-66
2023/10/02 13:01:00;;;;;;;36.05;19.50;;;20.60;99.90;;;;;;5015810;28;20052;-66
2023/10/02 13:03:35;;;;;;;34.40;18.40;;;20.50;99.90;;;;;;5018035;28;20073;-66
2023/10/02 13:06:03;;;;;;;;;;;20.40;99.90;;;;;;5036866;28;20029;-66
2023/10/02 13:08:29;;;;;;;37.22;17.10;;;20.60;99.90;;;;;;5015689;28;20454;-67
2023/10/02 13:10:55;;;;;;;37.05;17.23;;;20.60;99.90;;;;;;5042302;28;20148;-66
2023/10/02 13:13:21;;;;;;;38.45;17.70;;;20.60;99.90;;;;;;5037849;28;20706;-65
2023/10/02 13:15:51;;;;;;;33.03;16.30;;;20.80;99.90;;;;;;5037123;28;20045;-66
2023/10/02 13:18:17;;;;;;;32.92;15.20;;;20.60;99.90;;;;;;5042865;28;20497;-66
2023/10/02 13:20:45;;;;;;;32.85;16.33;;;20.80;99.90;;;;;;5013980;28;20047;-67
2023/10/02 13:23:14;;;;;;;38.00;18.45;;;20.70;99.90;;;;;;5017383;28;20559;-66
2023/10/02 13:25:41;;;;;;;35.03;17.75;;;20.80;99.90;;;;;;5034394;28;20049;-66
2023/10/02 13:28:11;;;;;;;37.75;17.75;;;20.80;99.90;;;;;;5037868;28;20577;-67
2023/10/02 13:30:38;;;;;;;40.78;18.33;;;20.50;99.90;;;;;;5035997;28;20690;-66
2023/10/02 13:33:04;;;;;;;34.08;19.40;;;20.50;99.90;;;;;;5040498;28;20068;-67
2023/10/02 13:35:32;;;;;;;32.97;17.20;;;20.60;99.90;;;;;;5015638;28;20053;-67
2023/10/02 13:38:00;;;;;;;33.60;17.58;;;20.90;99.90;;;;;;5022675;28;20719;-67
2023/10/02 13:40:26;;;;;;;40.95;18.92;;;21.00;99.90;;;;;;5003736;28;20648;-65
2023/10/02 13:42:53;;;;;;;41.45;18.08;;;20.80;99.90;;;;;;5045115;28;20041;-66
2023/10/02 13:45:19;;;;;;;28.27;15.40;;;20.80;99.90;;;;;;5039411;28;20073;-66
2023/10/02 13:47:46;;;;;;;28.85;14.60;;;21.00;99.90;;;;;;5013600;28;20080;-66
2023/10/02 13:50:13;;;;;;;31.05;16.55;;;20.80;99.90;;;;;;5032546;28;20158;-66
2023/10/02 13:52:39;;;;;;;35.72;17.20;;;20.80;99.90;;;;;;5035139;28;20080;-65
2023/10/02 13:55:19;;;;;;;31.50;15.27;;;21.10;99.90;;;;;;5032902;28;20103;-66
2023/10/02 13:57:52;;;;;;;33.42;16.40;;;20.90;99.90;;;;;;5020379;28;20524;-65
2023/10/02 14:00:21;;;;;;;34.58;17.35;;;21.10;99.90;;;;;;5018299;28;20032;-67
2023/10/02 14:02:48;;;;;;;35.42;16.42;;;21.20;99.90;;;;;;5020304;28;20420;-66
2023/10/02 14:05:15;;;;;;;39.28;18.10;;;21.00;99.90;;;;;;5036322;28;20048;-69
2023/10/02 14:07:50;;;;;;;36.25;16.45;;;21.10;99.90;;;;;;5017072;28;20059;-66
2023/10/02 14:10:17;;;;;;;34.13;18.10;;;21.20;99.90;;;;;;5005305;28;20044;-66